Time;durP1;ratioP1;P1;durP2;ratioP2;P2;SDS_P1;SDS_P2;PMS_P1;PMS_P2;Temp;Humidity;BMP_temperature;BMP_pressure;BME280_temperature;BME280_humidity;BME280_pressure;Samples;Min_cycle;Max_cycle;Signal;HPM_P1;HPM_P2
2022/05/26 00:01:40;;;;;;;1.10;0.70;;;13.00;99.90;;;;;;5071814;28;20051;-69
2022/05/26 00:04:05;;;;;;;1.15;0.60;;;13.10;99.90;;;;;;5071765;28;20071;-70
2022/05/26 00:06:31;;;;;;;1.92;0.68;;;13.10;99.90;;;;;;5071706;28;20079;-70
2022/05/26 00:08:58;;;;;;;0.88;0.50;;;13.10;99.90;;;;;;5071309;28;20039;-70
2022/05/26 00:11:31;;;;;;;0.47;0.30;;;13.10;99.90;;;;;;5071361;28;20517;-70
2022/05/26 00:13:58;;;;;;;0.77;0.50;;;13.10;99.90;;;;;;5054036;28;20036;-70
2022/05/26 00:16:24;;;;;;;1.20;0.73;;;13.10;99.90;;;;;;5053995;28;20074;-69
2022/05/26 00:18:50;;;;;;;0.85;0.50;;;13.10;99.90;;;;;;5071094;28;20040;-69
2022/05/26 00:21:16;;;;;;;1.08;0.60;;;13.10;99.90;;;;;;5070898;28;20202;-69
2022/05/26 00:23:41;;;;;;;1.48;0.95;;;13.10;99.90;;;;;;5070784;28;20450;-69
2022/05/26 00:26:07;;;;;;;1.38;0.77;;;13.10;99.90;;;;;;5054285;28;20044;-70
2022/05/26 00:28:33;;;;;;;2.47;1.02;;;13.20;99.90;;;;;;5054318;28;20054;-70
2022/05/26 00:30:59;;;;;;;1.58;0.82;;;13.20;99.90;;;;;;5069571;28;20044;-70
2022/05/26 00:33:25;;;;;;;3.42;1.20;;;13.20;99.90;;;;;;5067232;28;20064;-70
2022/05/26 00:35:50;;;;;;;2.30;1.35;;;13.20;99.90;;;;;;5067584;28;20109;-70
2022/05/26 00:38:17;;;;;;;5.05;1.45;;;13.20;99.90;;;;;;5066765;28;20541;-69
2022/05/26 00:40:44;;;;;;;2.20;1.20;;;13.20;99.90;;;;;;5066994;28;20398;-70
2022/05/26 00:43:10;;;;;;;2.17;1.02;;;13.20;99.90;;;;;;5067245;28;20560;-69
2022/05/26 00:45:43;;;;;;;1.92;1.00;;;13.20;99.90;;;;;;5066442;28;20055;-70
2022/05/26 00:48:17;;;;;;;2.53;1.60;;;13.20;99.90;;;;;;5067646;28;20051;-70
2022/05/26 00:50:55;;;;;;;6.05;2.05;;;13.30;99.90;;;;;;5067041;28;20044;-70
2022/05/26 00:53:33;;;;;;;5.50;2.17;;;13.30;99.90;;;;;;5068609;28;20486;-70
2022/05/26 00:56:07;;;;;;;3.72;1.73;;;13.30;99.90;;;;;;5066768;28;20501;-70
2022/05/26 00:58:40;;;;;;;4.85;1.92;;;13.30;99.90;;;;;;5067119;28;20040;-69
2022/05/26 01:01:05;;;;;;;7.53;2.22;;;13.30;99.90;;;;;;5049124;28;20048;-69
2022/05/26 01:03:40;;;;;;;4.32;2.38;;;13.30;99.90;;;;;;5067158;28;20045;-69
2022/05/26 01:06:16;;;;;;;6.45;2.22;;;13.30;99.90;;;;;;5050597;28;20394;-69
2022/05/26 01:08:58;;;;;;;5.30;2.03;;;13.40;99.90;;;;;;5067662;28;20112;-69
2022/05/26 01:11:26;;;;;;;6.03;2.55;;;13.40;99.90;;;;;;5067344;28;20401;-69
2022/05/26 01:14:00;;;;;;;4.82;2.03;;;13.40;99.90;;;;;;5066532;28;20040;-69
2022/05/26 01:16:40;;;;;;;4.43;2.42;;;13.40;99.90;;;;;;5066387;28;20398;-70
2022/05/26 01:19:18;;;;;;;2.78;1.83;;;13.40;99.90;;;;;;5066991;28;20582;-69
2022/05/26 01:21:59;;;;;;;5.57;2.40;;;13.40;99.90;;;;;;5068403;28;20036;-70
2022/05/26 01:24:49;;;;;;;3.15;1.70;;;13.50;99.90;;;;;;5067203;28;20425;-69
2022/05/26 01:27:31;;;;;;;4.95;2.35;;;13.50;99.90;;;;;;5068340;28;20036;-69
2022/05/26 01:30:25;;;;;;;7.30;2.70;;;13.40;99.90;;;;;;5067349;28;20040;-70
2022/05/26 01:33:38;;;;;;;8.00;2.58;;;13.50;99.90;;;;;;5067013;28;20655;-70
2022/05/26 01:36:19;;;;;;;4.15;2.38;;;13.50;99.90;;;;;;5066843;28;20032;-69
2022/05/26 01:39:09;;;;;;;7.00;2.28;;;13.50;99.90;;;;;;5066825;28;20135;-69
2022/05/26 01:42:04;;;;;;;5.72;2.40;;;13.50;99.90;;;;;;5067041;28;20126;-69
2022/05/26 01:44:36;;;;;;;6.05;1.75;;;13.50;99.90;;;;;;5065726;28;20583;-69
2022/05/26 01:47:09;;;;;;;4.72;1.98;;;13.50;99.90;;;;;;5066378;28;20045;-69
2022/05/26 01:49:44;;;;;;;8.50;2.05;;;13.50;99.90;;;;;;5066450;28;20040;-69
2022/05/26 01:52:27;;;;;;;7.05;2.10;;;13.50;99.90;;;;;;5066735;28;20080;-69
2022/05/26 01:55:21;;;;;;;6.85;2.05;;;13.40;99.90;;;;;;5066082;28;20045;-69
2022/05/26 01:58:08;;;;;;;4.30;2.00;;;13.40;99.90;;;;;;5066761;28;20105;-69
2022/05/26 02:00:33;;;;;;;8.05;1.80;;;13.40;99.90;;;;;;5065416;28;20044;-69
2022/05/26 02:03:05;;;;;;;4.22;2.20;;;13.40;99.90;;;;;;5067701;28;20051;-69
2022/05/26 02:05:45;;;;;;;6.68;2.53;;;13.30;99.90;;;;;;5070263;28;20119;-69
2022/05/26 02:08:13;;;;;;;7.00;2.25;;;13.40;99.90;;;;;;5070225;28;20079;-69
2022/05/26 02:10:55;;;;;;;3.33;1.67;;;13.40;99.90;;;;;;5053246;28;20053;-69
2022/05/26 02:13:26;;;;;;;3.05;1.88;;;13.40;99.90;;;;;;5069971;28;20082;-69
2022/05/26 02:15:57;;;;;;;4.78;2.00;;;13.40;99.90;;;;;;5069362;28;20373;-69
2022/05/26 02:18:30;;;;;;;7.03;1.95;;;13.40;99.90;;;;;;5069519;28;20047;-69
2022/05/26 02:21:07;;;;;;;8.68;2.90;;;13.40;99.90;;;;;;5069878;28;20048;-69
2022/05/26 02:23:55;;;;;;;9.68;2.78;;;13.50;99.90;;;;;;5070035;28;20048;-69
2022/05/26 02:26:21;;;;;;;9.95;3.08;;;13.50;99.90;;;;;;5069615;28;20409;-69
2022/05/26 02:31:33;;;;;;;5.97;2.40;;;13.50;99.90;;;;;;5071721;28;20041;-69
2022/05/26 02:34:01;;;;;;;3.95;1.75;;;13.50;99.90;;;;;;5069824;28;20056;-69
2022/05/26 02:36:32;;;;;;;10.88;2.63;;;13.50;99.90;;;;;;5053209;28;20048;-69
2022/05/26 02:38:59;;;;;;;4.25;1.83;;;13.50;99.90;;;;;;5069616;28;20062;-70
2022/05/26 02:41:26;;;;;;;7.32;1.85;;;13.50;99.90;;;;;;5070424;28;20123;-69
2022/05/26 02:43:52;;;;;;;4.72;2.22;;;13.50;99.90;;;;;;5069583;28;20392;-70
2022/05/26 02:46:23;;;;;;;7.70;1.95;;;13.50;99.90;;;;;;5052457;28;20040;-69
2022/05/26 02:48:54;;;;;;;2.83;1.40;;;13.50;99.90;;;;;;5069506;28;20407;-70
2022/05/26 02:51:44;;;;;;;5.47;2.10;;;13.50;99.90;;;;;;5052918;28;20076;-70
2022/05/26 02:54:56;;;;;;;3.63;1.73;;;13.50;99.90;;;;;;5069389;28;20044;-70
2022/05/26 02:57:50;;;;;;;8.32;2.10;;;13.50;99.90;;;;;;5033544;28;20102;-70
2022/05/26 03:00:22;;;;;;;6.70;1.88;;;13.50;99.90;;;;;;5068459;28;20056;-70
2022/05/26 03:03:08;;;;;;;4.15;2.20;;;13.50;99.90;;;;;;5069639;28;20051;-70
2022/05/26 03:06:00;;;;;;;7.03;1.83;;;13.60;99.90;;;;;;5068999;28;20098;-70
2022/05/26 03:08:28;;;;;;;7.97;2.20;;;13.50;99.90;;;;;;5051729;28;20050;-70
2022/05/26 03:11:03;;;;;;;4.10;2.17;;;13.50;99.90;;;;;;5068541;28;20465;-70
2022/05/26 03:13:29;;;;;;;5.72;1.88;;;13.50;99.90;;;;;;5068522;28;20369;-70
2022/05/26 03:15:55;;;;;;;3.47;1.88;;;13.50;99.90;;;;;;5049984;28;20036;-69
2022/05/26 03:18:20;;;;;;;5.45;2.30;;;13.50;99.90;;;;;;5068494;28;20426;-69
2022/05/26 03:20:46;;;;;;;5.60;1.48;;;13.50;99.90;;;;;;5068252;28;20048;-70
2022/05/26 03:23:12;;;;;;;5.55;1.60;;;13.50;99.90;;;;;;5069022;28;20049;-70
2022/05/26 03:25:37;;;;;;;5.28;1.73;;;13.50;99.90;;;;;;5068521;28;20048;-69
2022/05/26 03:28:03;;;;;;;8.40;1.92;;;13.50;99.90;;;;;;5068652;28;20490;-69
2022/05/26 03:30:28;;;;;;;8.75;1.55;;;13.50;99.90;;;;;;5067328;28;20114;-69
2022/05/26 03:32:54;;;;;;;4.30;1.85;;;13.50;99.90;;;;;;5068406;28;20455;-69
2022/05/26 03:40:57;;;;;;;6.03;2.03;;;13.40;99.90;;;;;;5069285;28;20083;-70
2022/05/26 03:43:29;;;;;;;6.18;1.70;;;13.50;99.90;;;;;;5068341;28;20095;-69
2022/05/26 03:45:57;;;;;;;3.53;1.60;;;13.40;99.90;;;;;;5067245;28;20054;-70
2022/05/26 03:48:23;;;;;;;5.38;1.65;;;13.50;99.90;;;;;;5068331;28;20043;-69
2022/05/26 03:50:48;;;;;;;5.10;1.30;;;13.40;99.90;;;;;;5068192;28;20052;-69
2022/05/26 03:53:14;;;;;;;3.47;1.08;;;13.40;99.90;;;;;;5068359;28;20036;-70
2022/05/26 03:55:40;;;;;;;7.20;1.70;;;13.40;99.90;;;;;;5067733;28;20036;-69
2022/05/26 03:58:06;;;;;;;1.92;1.08;;;13.40;99.90;;;;;;5068017;28;20422;-69
2022/05/26 04:00:32;;;;;;;2.95;1.02;;;13.40;99.90;;;;;;5066752;28;20044;-70
2022/05/26 04:02:59;;;;;;;4.88;1.42;;;13.40;99.90;;;;;;5068121;28;20094;-70
2022/05/26 04:05:25;;;;;;;4.38;1.58;;;13.40;99.90;;;;;;5068005;28;20485;-69
2022/05/26 04:07:51;;;;;;;6.43;1.70;;;13.40;99.90;;;;;;5068235;28;20078;-70
2022/05/26 04:10:17;;;;;;;4.45;1.35;;;13.40;99.90;;;;;;5067152;28;20048;-70
2022/05/26 04:12:42;;;;;;;3.60;1.40;;;13.40;99.90;;;;;;5067824;28;20445;-69
2022/05/26 04:15:09;;;;;;;5.30;1.50;;;13.40;99.90;;;;;;5066450;28;20033;-70
2022/05/26 04:17:36;;;;;;;4.32;1.30;;;13.40;99.90;;;;;;5067406;28;20120;-70
2022/05/26 04:20:02;;;;;;;5.10;0.95;;;13.40;99.90;;;;;;5067470;28;20044;-69
2022/05/26 04:22:28;;;;;;;6.15;1.27;;;13.40;99.90;;;;;;5067691;28;20105;-70
2022/05/26 04:24:57;;;;;;;5.78;1.33;;;13.40;99.90;;;;;;5067195;28;20452;-70
2022/05/26 04:27:26;;;;;;;3.53;1.30;;;13.40;99.90;;;;;;5066945;28;20040;-69
2022/05/26 04:29:52;;;;;;;3.92;1.02;;;13.40;99.90;;;;;;5066105;28;20098;-70
2022/05/26 04:32:19;;;;;;;4.95;1.52;;;13.30;99.90;;;;;;5067465;28;20076;-70
2022/05/26 04:34:48;;;;;;;4.55;1.48;;;13.30;99.90;;;;;;5067629;28;20052;-69
2022/05/26 04:37:20;;;;;;;1.98;1.33;;;13.30;99.90;;;;;;5067205;28;20029;-70
2022/05/26 04:39:46;;;;;;;5.70;1.15;;;13.30;99.90;;;;;;5067029;28;20078;-70
2022/05/26 04:42:12;;;;;;;2.67;0.90;;;13.40;99.90;;;;;;5068417;28;20040;-70
2022/05/26 04:44:41;;;;;;;4.55;1.08;;;13.40;99.90;;;;;;5066712;28;20033;-69
2022/05/26 04:47:07;;;;;;;8.40;1.00;;;13.40;99.90;;;;;;5067183;28;20040;-69
2022/05/26 04:49:35;;;;;;;5.38;1.00;;;13.40;99.90;;;;;;5066966;28;20079;-70
2022/05/26 04:52:01;;;;;;;2.45;1.00;;;13.40;99.90;;;;;;5067186;28;20052;-69
2022/05/26 04:54:26;;;;;;;2.65;0.93;;;13.40;99.90;;;;;;5066772;28;20040;-70
2022/05/26 04:56:57;;;;;;;3.25;1.02;;;13.50;99.90;;;;;;5067435;28;20127;-70
2022/05/26 04:59:23;;;;;;;1.92;0.70;;;13.40;99.90;;;;;;5066111;28;20056;-70
2022/05/26 05:01:49;;;;;;;5.05;0.93;;;13.40;99.90;;;;;;5067212;28;20044;-69
2022/05/26 05:04:15;;;;;;;9.10;0.98;;;13.40;99.90;;;;;;5067583;28;20048;-70
2022/05/26 05:06:40;;;;;;;2.60;0.65;;;13.40;99.90;;;;;;5067656;28;20509;-69
2022/05/26 05:09:06;;;;;;;1.25;0.70;;;13.40;99.90;;;;;;5066661;28;20437;-69
2022/05/26 05:11:31;;;;;;;0.80;0.50;;;13.40;99.90;;;;;;5067334;28;20453;-70
2022/05/26 05:14:02;;;;;;;1.60;0.60;;;13.40;99.90;;;;;;5066622;28;20405;-70
2022/05/26 05:16:34;;;;;;;1.58;0.80;;;13.30;99.90;;;;;;5056294;28;20039;-70
2022/05/26 05:19:00;;;;;;;1.10;0.47;;;13.40;99.90;;;;;;5067038;28;20059;-70
2022/05/26 05:21:32;;;;;;;2.45;0.50;;;13.40;99.90;;;;;;5067289;28;20504;-70
2022/05/26 05:24:02;;;;;;;6.05;0.80;;;13.30;99.90;;;;;;5067283;28;20052;-69
2022/05/26 05:26:34;;;;;;;0.47;0.32;;;13.30;99.90;;;;;;5067189;28;20040;-69
2022/05/26 05:29:04;;;;;;;2.30;0.50;;;13.30;99.90;;;;;;5049714;28;20086;-69
2022/05/26 05:31:36;;;;;;;4.88;0.77;;;13.30;99.90;;;;;;5066963;28;20076;-70
2022/05/26 05:34:09;;;;;;;3.35;0.30;;;13.30;99.90;;;;;;5066554;28;20052;-69
2022/05/26 05:36:35;;;;;;;0.73;0.38;;;13.40;99.90;;;;;;5050097;28;20425;-70
2022/05/26 05:39:02;;;;;;;1.98;0.30;;;13.30;99.90;;;;;;5069456;28;20044;-69
2022/05/26 05:41:29;;;;;;;0.68;0.38;;;13.40;99.90;;;;;;5070468;28;20402;-70
2022/05/26 05:43:58;;;;;;;3.08;0.47;;;13.40;99.90;;;;;;5070172;28;20041;-70
2022/05/26 05:46:23;;;;;;;1.40;0.40;;;13.40;99.90;;;;;;5071222;28;20121;-69
2022/05/26 05:48:49;;;;;;;0.43;0.25;;;13.40;99.90;;;;;;5070264;28;20516;-69
2022/05/26 05:51:17;;;;;;;2.10;0.52;;;13.50;99.90;;;;;;5070351;28;20044;-69
2022/05/26 05:53:44;;;;;;;4.22;0.38;;;13.50;99.90;;;;;;5071111;28;20409;-69
2022/05/26 05:56:10;;;;;;;0.55;0.32;;;13.60;99.90;;;;;;5069923;28;20494;-69
2022/05/26 05:58:36;;;;;;;2.03;0.50;;;13.60;99.90;;;;;;5070412;28;20422;-69
2022/05/26 06:01:01;;;;;;;0.70;0.38;;;13.60;99.90;;;;;;5069102;28;20048;-69
2022/05/26 06:03:32;;;;;;;1.42;0.50;;;13.60;99.90;;;;;;5069978;28;20673;-70
2022/05/26 06:06:07;;;;;;;1.60;0.60;;;13.70;99.90;;;;;;5071814;28;20036;-69
2022/05/26 06:08:33;;;;;;;0.20;0.20;;;13.80;99.90;;;;;;5070210;28;20127;-70
2022/05/26 06:10:59;;;;;;;0.38;0.30;;;13.80;99.90;;;;;;5053179;28;20059;-69
2022/05/26 06:13:25;;;;;;;0.65;0.28;;;13.80;99.90;;;;;;5070107;28;20482;-69
2022/05/26 06:15:51;;;;;;;0.82;0.22;;;13.90;99.90;;;;;;5068912;28;20048;-69
2022/05/26 06:18:16;;;;;;;1.42;0.70;;;13.90;99.90;;;;;;5070172;28;20036;-69
2022/05/26 06:20:43;;;;;;;0.40;0.20;;;13.90;99.90;;;;;;5070366;28;20032;-69
2022/05/26 06:23:09;;;;;;;1.52;0.38;;;13.90;99.90;;;;;;5070056;28;20044;-69
2022/05/26 06:25:34;;;;;;;2.08;0.30;;;14.00;99.90;;;;;;5070060;28;20446;-69
2022/05/26 06:30:44;;;;;;;1.02;0.40;;;14.00;99.90;;;;;;5069036;28;20135;-69
2022/05/26 06:38:41;;;;;;;;;;;16.60;99.90;;;;;;5070157;28;20080;-69
2022/05/26 06:43:53;;;;;;;1.50;0.30;;;16.60;99.90;;;;;;5069040;28;20052;-69
2022/05/26 06:46:19;;;;;;;0.10;0.08;;;16.20;99.90;;;;;;5068899;28;20051;-69
2022/05/26 06:48:45;;;;;;;0.43;0.25;;;15.90;99.90;;;;;;5069483;28;20037;-69
2022/05/26 06:51:11;;;;;;;1.15;0.30;;;15.60;99.90;;;;;;5052299;28;20084;-69
2022/05/26 06:53:38;;;;;;;0.70;0.20;;;15.40;99.90;;;;;;5069610;28;20080;-69
2022/05/26 06:56:05;;;;;;;0.52;0.30;;;15.20;99.90;;;;;;5052546;28;20048;-69
2022/05/26 06:58:31;;;;;;;0.57;0.45;;;15.10;99.90;;;;;;5069542;28;20040;-69
2022/05/26 07:00:57;;;;;;;0.45;0.30;;;14.90;99.90;;;;;;5068154;28;20082;-69
2022/05/26 07:03:23;;;;;;;2.38;0.30;;;14.80;99.90;;;;;;5069372;28;20076;-69
2022/05/26 07:05:50;;;;;;;0.20;0.20;;;14.80;99.90;;;;;;5069198;28;20130;-69
2022/05/26 07:08:17;;;;;;;0.55;0.30;;;14.70;99.90;;;;;;5070460;28;20603;-69
2022/05/26 07:10:42;;;;;;;0.20;0.20;;;14.70;99.90;;;;;;5068680;28;20544;-69
2022/05/26 07:13:09;;;;;;;0.57;0.20;;;14.70;99.90;;;;;;5069179;28;20052;-69
2022/05/26 07:15:35;;;;;;;0.75;0.20;;;14.70;99.90;;;;;;5057052;28;20048;-69
2022/05/26 07:18:04;;;;;;;0.85;0.38;;;14.70;99.90;;;;;;5068999;28;20497;-69
2022/05/26 07:20:29;;;;;;;0.38;0.25;;;14.70;99.90;;;;;;5068409;28;20109;-69
2022/05/26 07:22:55;;;;;;;3.10;0.60;;;14.70;99.90;;;;;;5068891;28;20044;-69
2022/05/26 07:25:21;;;;;;;0.25;0.20;;;14.80;99.90;;;;;;5068201;28;20491;-69
2022/05/26 07:27:47;;;;;;;1.38;0.30;;;14.80;99.90;;;;;;5068667;28;20058;-69
2022/05/26 07:30:12;;;;;;;0.45;0.22;;;14.90;99.90;;;;;;5050986;28;20044;-69
2022/05/26 07:32:38;;;;;;;2.13;0.45;;;15.00;99.90;;;;;;5068570;28;20045;-69
2022/05/26 07:35:04;;;;;;;0.60;0.30;;;15.10;99.90;;;;;;5051554;28;20040;-69
2022/05/26 07:42:58;;;;;;;0.35;0.25;;;15.20;99.90;;;;;;5068155;28;20052;-69
2022/05/26 07:45:24;;;;;;;4.40;0.50;;;15.30;99.90;;;;;;5067228;28;20371;-69
2022/05/26 07:47:50;;;;;;;0.13;0.10;;;15.40;99.90;;;;;;5068170;28;20052;-69
2022/05/26 07:50:20;;;;;;;0.57;0.20;;;15.40;99.90;;;;;;5068220;28;20095;-69
2022/05/26 07:52:50;;;;;;;1.75;0.43;;;15.40;99.90;;;;;;5068386;28;20029;-69
2022/05/26 07:55:18;;;;;;;0.70;0.30;;;15.40;99.90;;;;;;5067887;28;20048;-69
2022/05/26 07:57:44;;;;;;;0.65;0.30;;;15.30;99.90;;;;;;5068231;28;20573;-69
2022/05/26 08:00:10;;;;;;;0.55;0.22;;;15.40;99.90;;;;;;5066267;28;20055;-68
2022/05/26 08:02:36;;;;;;;0.50;0.17;;;15.50;99.90;;;;;;5067530;28;20514;-69
2022/05/26 08:05:02;;;;;;;1.20;0.20;;;15.50;99.90;;;;;;5068126;28;20036;-69
2022/05/26 08:07:28;;;;;;;0.98;0.50;;;15.50;99.90;;;;;;5067791;28;20049;-69
2022/05/26 08:09:54;;;;;;;3.25;0.20;;;15.50;99.90;;;;;;5067416;28;20054;-69
2022/05/26 08:12:19;;;;;;;0.47;0.20;;;15.50;99.90;;;;;;5067789;28;20422;-69
2022/05/26 08:14:45;;;;;;;1.08;0.25;;;15.50;99.90;;;;;;5066592;28;20121;-69
2022/05/26 08:17:13;;;;;;;1.45;0.98;;;15.50;99.90;;;;;;5067874;28;20081;-69
2022/05/26 08:19:39;;;;;;;2.83;0.30;;;15.70;99.90;;;;;;5067661;28;20497;-68
2022/05/26 08:22:05;;;;;;;0.20;0.20;;;15.60;99.90;;;;;;5067615;28;20048;-68
2022/05/26 08:24:30;;;;;;;1.65;0.43;;;15.60;99.90;;;;;;5068481;28;20041;-68
2022/05/26 08:26:56;;;;;;;1.80;0.30;;;15.60;99.90;;;;;;5067851;28;20033;-68
2022/05/26 08:29:22;;;;;;;2.08;0.38;;;15.60;99.90;;;;;;5066338;28;20523;-68
2022/05/26 08:31:47;;;;;;;2.08;0.28;;;15.70;99.90;;;;;;5067945;28;20037;-69
2022/05/26 08:34:13;;;;;;;0.32;0.20;;;15.70;99.90;;;;;;5071303;28;20078;-68
2022/05/26 08:36:39;;;;;;;0.70;0.20;;;15.80;99.90;;;;;;5071045;28;20413;-68
2022/05/26 08:39:05;;;;;;;2.72;0.30;;;15.80;99.90;;;;;;5088810;28;20650;-69
2022/05/26 08:41:41;;;;;;;0.38;0.17;;;15.90;99.90;;;;;;5054364;28;20105;-69
2022/05/26 08:44:14;;;;;;;0.20;0.10;;;15.90;99.90;;;;;;5070433;28;20040;-69
2022/05/26 08:46:54;;;;;;;3.38;0.43;;;16.00;99.90;;;;;;5070858;28;20123;-69
2022/05/26 08:49:40;;;;;;;1.05;0.20;;;16.00;99.90;;;;;;5054259;28;20154;-68
2022/05/26 08:52:20;;;;;;;0.20;0.10;;;16.10;99.90;;;;;;5053961;28;20047;-68
2022/05/26 08:55:01;;;;;;;0.80;0.20;;;16.10;99.90;;;;;;5053929;28;20067;-68
2022/05/26 08:57:39;;;;;;;0.20;0.20;;;16.20;99.90;;;;;;5088938;28;20032;-68
2022/05/26 09:00:06;;;;;;;0.73;0.20;;;16.30;99.90;;;;;;5069707;28;20047;-68
2022/05/26 09:02:35;;;;;;;0.03;0.03;;;16.40;99.90;;;;;;5088371;28;20115;-68
2022/05/26 09:05:04;;;;;;;0.20;0.20;;;16.40;99.90;;;;;;5070710;28;20110;-68
2022/05/26 09:13:13;;;;;;;2.35;0.20;;;16.40;99.90;;;;;;5090644;28;20493;-68
2022/05/26 09:15:40;;;;;;;3.40;0.30;;;16.40;99.90;;;;;;5062661;28;20436;-68
2022/05/26 09:18:18;;;;;;;2.50;0.32;;;16.40;99.90;;;;;;5074835;28;20040;-68
2022/05/26 09:20:46;;;;;;;0.35;0.20;;;16.30;99.90;;;;;;5074768;28;20043;-68
2022/05/26 09:23:27;;;;;;;0.40;0.15;;;16.40;99.90;;;;;;5074590;28;20040;-68
2022/05/26 09:26:01;;;;;;;0.15;0.10;;;16.30;99.90;;;;;;5074062;28;20127;-68
2022/05/26 09:28:45;;;;;;;0.10;0.10;;;16.30;99.90;;;;;;5074631;28;20371;-68
2022/05/26 09:31:22;;;;;;;1.85;0.20;;;16.30;99.90;;;;;;5056579;28;20126;-68
2022/05/26 09:34:01;;;;;;;0.90;0.22;;;16.20;99.90;;;;;;5091875;28;20483;-68
2022/05/26 09:36:30;;;;;;;0.30;0.10;;;16.20;99.90;;;;;;5074133;28;20122;-68
2022/05/26 09:38:57;;;;;;;0.20;0.10;;;16.20;99.90;;;;;;5074086;28;20294;-68
2022/05/26 09:41:23;;;;;;;0.17;0.17;;;16.10;99.90;;;;;;5073762;28;20036;-68
2022/05/26 09:43:58;;;;;;;1.20;0.20;;;16.20;99.90;;;;;;5073645;28;20057;-68
2022/05/26 09:46:26;;;;;;;0.28;0.17;;;16.20;99.90;;;;;;5091626;28;20096;-68
2022/05/26 09:48:58;;;;;;;0.28;0.20;;;16.30;99.90;;;;;;5073679;28;20040;-68
2022/05/26 09:51:27;;;;;;;0.17;0.10;;;16.50;99.90;;;;;;5073945;28;20048;-69
2022/05/26 09:53:55;;;;;;;0.00;0.00;;;16.70;99.90;;;;;;5073672;28;20040;-68
2022/05/26 09:56:41;;;;;;;0.35;0.15;;;16.80;99.90;;;;;;5056863;28;20433;-68
2022/05/26 09:59:29;;;;;;;0.10;0.10;;;16.80;99.90;;;;;;5072798;28;20047;-68
2022/05/26 10:02:33;;;;;;;0.15;0.10;;;16.90;99.90;;;;;;5073544;28;20044;-68
2022/05/26 10:05:29;;;;;;;1.00;0.28;;;16.90;99.90;;;;;;5060694;28;20044;-68
2022/05/26 10:08:23;;;;;;;0.22;0.10;;;16.90;99.90;;;;;;5073290;28;20036;-68
2022/05/26 10:11:00;;;;;;;1.08;0.40;;;16.70;99.90;;;;;;5072990;28;20497;-68
2022/05/26 10:14:06;;;;;;;1.13;0.15;;;16.50;99.90;;;;;;5091282;28;20048;-68
2022/05/26 10:16:43;;;;;;;2.17;0.13;;;16.50;99.90;;;;;;5073410;28;20066;-68
2022/05/26 10:19:23;;;;;;;3.20;0.28;;;16.50;99.90;;;;;;5056826;28;20032;-68
2022/05/26 10:22:03;;;;;;;1.45;0.17;;;16.50;99.90;;;;;;5091425;28;20049;-68
2022/05/26 10:24:58;;;;;;;3.22;0.25;;;16.50;99.90;;;;;;5072814;28;20032;-68
2022/05/26 10:27:53;;;;;;;1.45;0.30;;;16.50;99.90;;;;;;5044906;28;20079;-68
2022/05/26 10:30:41;;;;;;;0.55;0.20;;;16.50;99.90;;;;;;5072437;28;20512;-68
2022/05/26 10:33:35;;;;;;;1.42;0.15;;;16.60;99.90;;;;;;5073259;28;20056;-68
2022/05/26 10:36:10;;;;;;;0.55;0.30;;;16.60;99.90;;;;;;5073229;28;20131;-68
2022/05/26 10:38:59;;;;;;;1.27;0.30;;;16.70;99.90;;;;;;5072891;28;20035;-68
2022/05/26 10:41:37;;;;;;;0.20;0.20;;;16.80;99.90;;;;;;5073151;28;20075;-68
2022/05/26 10:44:08;;;;;;;0.17;0.10;;;17.00;99.90;;;;;;5072049;28;20126;-68
2022/05/26 10:46:37;;;;;;;1.88;0.20;;;17.10;99.90;;;;;;5072859;28;20066;-68
2022/05/26 10:49:03;;;;;;;0.70;0.20;;;17.00;99.90;;;;;;5072605;28;20051;-68
2022/05/26 10:51:44;;;;;;;0.60;0.25;;;17.00;99.90;;;;;;5056107;28;20040;-69
2022/05/26 10:54:29;;;;;;;0.68;0.30;;;16.90;99.90;;;;;;5090407;28;20040;-69
2022/05/26 10:57:02;;;;;;;0.45;0.30;;;16.90;99.90;;;;;;5072425;28;20494;-68
2022/05/26 10:59:36;;;;;;;0.45;0.30;;;17.00;99.90;;;;;;5071638;28;20556;-68
2022/05/26 11:02:05;;;;;;;0.95;0.40;;;17.00;99.90;;;;;;5090771;28;20113;-69
2022/05/26 11:04:41;;;;;;;0.85;0.45;;;16.90;99.90;;;;;;5072504;28;20447;-69
2022/05/26 11:07:16;;;;;;;1.25;0.40;;;16.80;99.90;;;;;;5055743;28;20071;-69
2022/05/26 11:09:54;;;;;;;1.67;0.57;;;16.80;99.90;;;;;;5054980;28;20043;-69
2022/05/26 11:12:37;;;;;;;0.20;0.20;;;16.70;99.90;;;;;;5072668;28;20051;-68
2022/05/26 11:18:02;;;;;;;2.95;0.52;;;16.50;99.90;;;;;;5051940;28;20127;-68
2022/05/26 11:20:33;;;;;;;0.85;0.60;;;16.50;99.90;;;;;;5051919;28;20450;-68
2022/05/26 11:23:04;;;;;;;1.00;0.32;;;16.50;99.90;;;;;;5052170;28;20055;-69
2022/05/26 11:25:38;;;;;;;0.43;0.30;;;16.50;99.90;;;;;;5052014;28;20087;-68
2022/05/26 11:28:10;;;;;;;0.50;0.38;;;16.50;99.90;;;;;;5035499;28;20062;-68
2022/05/26 11:36:52;;;;;;;1.15;0.47;;;16.50;99.90;;;;;;5051326;28;20154;-69
2022/05/26 11:39:24;;;;;;;0.57;0.50;;;16.60;99.90;;;;;;5063799;28;20044;-68
2022/05/26 11:42:00;;;;;;;0.60;0.50;;;16.60;99.90;;;;;;5051733;28;20048;-69
2022/05/26 11:44:40;;;;;;;0.63;0.32;;;16.50;99.90;;;;;;5069212;28;20086;-69
2022/05/26 11:47:33;;;;;;;0.63;0.28;;;16.60;99.90;;;;;;5069591;28;20079;-69
2022/05/26 11:50:03;;;;;;;1.77;0.63;;;16.60;99.90;;;;;;5036528;28;20091;-69
2022/05/26 11:52:34;;;;;;;3.42;0.60;;;16.70;99.90;;;;;;5035026;28;20050;-68
2022/05/26 11:55:06;;;;;;;1.23;0.22;;;16.70;99.90;;;;;;5064967;28;20044;-68
2022/05/26 11:57:48;;;;;;;1.67;0.52;;;16.70;99.90;;;;;;5089309;28;20058;-68
2022/05/26 12:00:33;;;;;;;4.28;0.60;;;16.70;99.90;;;;;;5070274;28;20077;-68
2022/05/26 12:03:28;;;;;;;0.50;0.30;;;16.70;99.90;;;;;;5071233;28;20040;-68
2022/05/26 12:06:15;;;;;;;1.83;0.45;;;16.80;99.90;;;;;;5070698;28;20044;-68
2022/05/26 12:08:53;;;;;;;0.38;0.38;;;16.90;99.90;;;;;;5071467;28;20386;-68
2022/05/26 12:11:22;;;;;;;1.27;0.43;;;16.90;99.90;;;;;;5071039;28;20470;-68
2022/05/26 12:14:02;;;;;;;3.03;0.50;;;16.80;99.90;;;;;;5088947;28;20118;-68
2022/05/26 12:16:29;;;;;;;1.23;0.40;;;16.80;99.90;;;;;;5070286;28;20093;-68
2022/05/26 12:18:56;;;;;;;3.70;0.77;;;16.80;99.90;;;;;;5070794;28;20119;-68
2022/05/26 12:21:46;;;;;;;3.92;0.57;;;16.80;99.90;;;;;;5071162;28;20055;-68
2022/05/26 12:24:36;;;;;;;0.30;0.20;;;16.90;99.90;;;;;;5054482;28;20135;-68
2022/05/26 12:27:03;;;;;;;0.25;0.20;;;16.90;99.90;;;;;;5089265;28;20047;-68
2022/05/26 12:29:48;;;;;;;0.63;0.30;;;16.90;99.90;;;;;;5070121;28;20043;-68
2022/05/26 12:32:19;;;;;;;0.65;0.30;;;16.90;99.90;;;;;;5070920;28;20100;-68
2022/05/26 12:35:07;;;;;;;0.80;0.25;;;16.90;99.90;;;;;;5071085;28;20092;-68
2022/05/26 12:38:15;;;;;;;0.50;0.20;;;16.90;99.90;;;;;;5070680;28;20554;-68
2022/05/26 12:41:06;;;;;;;1.63;0.30;;;17.00;99.90;;;;;;5050203;28;20099;-68
2022/05/26 12:43:45;;;;;;;0.65;0.30;;;17.00;99.90;;;;;;5070755;28;20040;-68
2022/05/26 12:46:51;;;;;;;1.30;0.32;;;17.10;99.90;;;;;;5053225;28;20040;-68
2022/05/26 12:49:54;;;;;;;1.20;0.30;;;17.20;99.90;;;;;;5071019;28;20094;-68
2022/05/26 12:52:37;;;;;;;0.82;0.30;;;17.20;99.90;;;;;;5070939;28;20098;-68
2022/05/26 12:55:37;;;;;;;0.28;0.22;;;17.30;99.90;;;;;;5088707;28;20398;-68
2022/05/26 12:58:10;;;;;;;0.70;0.38;;;17.30;99.90;;;;;;5089137;28;20048;-68
2022/05/26 13:00:59;;;;;;;0.10;0.10;;;17.30;99.90;;;;;;5069631;28;20058;-68
2022/05/26 13:03:43;;;;;;;0.20;0.20;;;17.40;99.90;;;;;;5071131;28;20044;-68
2022/05/26 13:06:19;;;;;;;3.70;0.38;;;17.60;99.90;;;;;;5070631;28;20154;-68
2022/05/26 13:08:55;;;;;;;1.30;0.38;;;17.70;99.90;;;;;;5054286;28;20044;-68
2022/05/26 13:11:26;;;;;;;0.25;0.20;;;17.80;99.90;;;;;;5070560;28;20040;-68
2022/05/26 13:13:56;;;;;;;0.88;0.30;;;17.90;99.70;;;;;;5069842;28;20078;-68
2022/05/26 13:16:26;;;;;;;1.02;0.20;;;18.00;99.80;;;;;;5069778;28;20119;-68
2022/05/26 13:18:53;;;;;;;1.02;0.40;;;18.10;99.30;;;;;;5069916;28;20047;-68
2022/05/26 13:21:21;;;;;;;0.57;0.20;;;18.10;99.30;;;;;;5088390;28;20040;-68
2022/05/26 13:23:50;;;;;;;0.22;0.20;;;18.10;99.00;;;;;;5070043;28;20065;-68
2022/05/26 13:26:17;;;;;;;2.15;0.40;;;18.00;98.90;;;;;;5070041;28;20274;-68
2022/05/26 13:28:58;;;;;;;1.15;0.40;;;17.90;99.10;;;;;;5070542;28;20036;-68
2022/05/26 13:34:12;;;;;;;1.45;0.75;;;17.80;99.20;;;;;;5070244;28;20102;-68
2022/05/26 13:36:44;;;;;;;0.63;0.20;;;17.70;98.90;;;;;;5069953;28;20044;-68
2022/05/26 13:39:11;;;;;;;3.80;0.47;;;17.70;99.20;;;;;;5069946;28;20039;-68
2022/05/26 13:41:39;;;;;;;2.42;0.60;;;17.60;99.70;;;;;;5087829;28;20040;-69
2022/05/26 13:44:07;;;;;;;1.85;0.47;;;17.60;99.40;;;;;;5069203;28;20044;-68
2022/05/26 13:46:38;;;;;;;2.40;0.40;;;17.60;99.70;;;;;;5070321;28;20562;-68
2022/05/26 13:49:33;;;;;;;0.40;0.20;;;17.60;99.10;;;;;;5053371;28;20119;-68
2022/05/26 13:52:19;;;;;;;0.40;0.20;;;17.50;98.90;;;;;;5061782;28;20433;-68
2022/05/26 13:54:52;;;;;;;0.23;0.20;;;17.60;99.90;;;;;;5069718;28;20504;-68
2022/05/26 13:57:20;;;;;;;0.20;0.10;;;17.60;99.90;;;;;;5053150;28;20275;-68
2022/05/26 13:59:49;;;;;;;0.90;0.30;;;17.70;99.90;;;;;;5054569;28;20076;-68